Time;durP1;ratioP1;P1;durP2;ratioP2;P2;SDS_P1;SDS_P2;PMS_P1;PMS_P2;Temp;Humidity;BMP_temperature;BMP_pressure;BME280_temperature;BME280_humidity;BME280_pressure;Samples;Min_cycle;Max_cycle;Signal;HPM_P1;HPM_P2
2023/07/08 03:01:50;;;;;;;51.40;48.07;;;16.00;99.90;;;;;;5254477;23;20765;-76
2023/07/08 03:04:15;;;;;;;63.37;59.73;;;16.10;99.90;;;;;;4914716;29;20544;-76
2023/07/08 03:06:45;;;;;;;51.03;47.78;;;16.10;99.90;;;;;;4905271;29;20213;-77
2023/07/08 03:09:12;;;;;;;66.20;62.00;;;16.00;99.90;;;;;;4914023;29;20195;-77
2023/07/08 03:11:38;;;;;;;65.90;61.90;;;16.00;99.90;;;;;;4914628;29;20207;-77
2023/07/08 03:14:06;;;;;;;58.38;54.95;;;16.00;99.90;;;;;;4929268;23;20298;-82
2023/07/08 03:16:31;;;;;;;57.10;53.57;;;16.00;99.90;;;;;;4906265;29;20203;-83
2023/07/08 03:18:57;;;;;;;57.23;53.93;;;15.90;99.90;;;;;;4904936;29;20192;-82
2023/07/08 03:21:23;;;;;;;46.63;43.58;;;15.90;99.90;;;;;;4913571;29;20276;-80
2023/07/08 03:23:50;;;;;;;37.07;34.57;;;15.90;99.90;;;;;;4911536;29;20275;-82
2023/07/08 03:26:20;;;;;;;31.93;29.83;;;15.90;99.90;;;;;;4883604;29;20189;-82
2023/07/08 03:28:47;;;;;;;23.43;21.57;;;15.90;99.90;;;;;;4886103;29;20204;-83
2023/07/08 03:31:12;;;;;;;20.30;18.80;;;15.90;99.90;;;;;;4885202;29;20664;-81
2023/07/08 03:33:38;;;;;;;31.53;29.30;;;15.90;99.90;;;;;;4899526;29;20191;-83
2023/07/08 03:36:10;;;;;;;42.23;38.93;;;15.80;99.90;;;;;;4903763;29;20196;-83
2023/07/08 03:38:35;;;;;;;42.50;39.90;;;15.70;99.90;;;;;;4910923;29;20196;-81
2023/07/08 03:41:01;;;;;;;39.13;36.30;;;15.70;99.90;;;;;;4898758;29;20444;-83
2023/07/08 03:43:27;;;;;;;47.23;44.37;;;15.70;99.90;;;;;;4908005;29;20216;-83
2023/07/08 03:45:53;;;;;;;39.73;37.10;;;15.70;99.90;;;;;;4900211;29;20192;-82
2023/07/08 03:48:19;;;;;;;34.03;31.80;;;15.80;99.90;;;;;;4894208;29;20271;-80
2023/07/08 03:50:44;;;;;;;23.42;21.38;;;15.90;99.90;;;;;;4900372;29;20189;-83
2023/07/08 03:53:10;;;;;;;20.40;18.67;;;15.90;99.90;;;;;;4901358;29;20192;-83
2023/07/08 03:55:36;;;;;;;15.10;13.70;;;15.80;99.90;;;;;;4881579;29;20179;-85
2023/07/08 03:58:02;;;;;;;17.57;16.07;;;15.80;99.90;;;;;;4900030;29;20191;-83
2023/07/08 04:00:28;;;;;;;40.70;38.03;;;15.70;99.90;;;;;;4898457;29;20187;-85
2023/07/08 04:02:53;;;;;;;20.53;18.83;;;15.80;99.90;;;;;;4889000;29;20204;-83
2023/07/08 04:05:21;;;;;;;31.50;29.40;;;15.70;99.90;;;;;;4895945;29;20213;-82
2023/07/08 04:07:47;;;;;;;41.13;37.97;;;15.70;99.90;;;;;;4897032;29;20211;-84
2023/07/08 04:10:14;;;;;;;34.37;32.13;;;15.80;99.90;;;;;;4898063;29;20593;-82
2023/07/08 04:12:40;;;;;;;14.97;13.67;;;15.80;99.90;;;;;;4894633;29;20291;-83
2023/07/08 04:15:11;;;;;;;13.97;10.33;;;15.90;99.90;;;;;;4888740;29;20232;-84
2023/07/08 04:17:45;;;;;;;13.07;8.80;;;15.90;99.90;;;;;;4882885;29;20195;-82
2023/07/08 04:20:14;;;;;;;9.87;8.90;;;16.00;99.90;;;;;;4898237;29;20576;-84
2023/07/08 04:22:40;;;;;;;11.50;10.30;;;16.20;99.90;;;;;;4894649;29;20555;-80
2023/07/08 04:25:08;;;;;;;11.87;10.77;;;16.30;99.90;;;;;;4895069;29;20216;-82
2023/07/08 04:27:33;;;;;;;14.30;12.90;;;16.40;99.90;;;;;;4891140;29;20641;-82
2023/07/08 04:29:59;;;;;;;18.65;17.15;;;16.50;99.90;;;;;;4898290;29;20275;-83
2023/07/08 04:32:25;;;;;;;16.93;15.20;;;16.50;99.90;;;;;;4890559;29;20207;-81
2023/07/08 04:34:54;;;;;;;13.27;11.10;;;16.60;99.90;;;;;;4892658;29;20212;-82
2023/07/08 04:37:19;;;;;;;28.58;26.60;;;16.80;99.90;;;;;;4906904;29;20181;-82
2023/07/08 04:39:46;;;;;;;45.25;42.22;;;16.90;99.90;;;;;;4892968;29;20265;-84
2023/07/08 04:42:16;;;;;;;46.80;44.05;;;17.00;99.90;;;;;;4897504;29;20695;-83
2023/07/08 04:44:42;;;;;;;54.30;50.90;;;17.10;99.90;;;;;;4892935;29;20271;-82
2023/07/08 04:47:13;;;;;;;47.83;45.00;;;17.20;99.90;;;;;;4898840;29;20219;-82
2023/07/08 04:49:40;;;;;;;26.67;24.75;;;17.30;99.90;;;;;;4883361;29;20197;-84
2023/07/08 04:52:06;;;;;;;12.25;10.32;;;17.40;99.90;;;;;;4893899;29;20243;-84
2023/07/08 04:54:32;;;;;;;9.02;7.65;;;17.50;99.90;;;;;;4912240;29;20221;-86
2023/07/08 04:56:58;;;;;;;11.80;8.65;;;17.60;99.90;;;;;;4900875;29;20637;-81
2023/07/08 04:59:25;;;;;;;9.27;8.25;;;17.70;99.90;;;;;;4901290;29;20585;-84
2023/07/08 05:01:52;;;;;;;9.80;8.80;;;18.00;99.90;;;;;;4902381;29;20191;-83
2023/07/08 05:04:19;;;;;;;10.30;9.07;;;18.20;99.90;;;;;;4891088;29;20216;-82
2023/07/08 05:06:45;;;;;;;13.32;12.05;;;18.50;99.90;;;;;;4908558;29;20212;-83
2023/07/08 05:09:11;;;;;;;13.65;12.25;;;18.90;99.90;;;;;;4901576;29;20199;-85
2023/07/08 05:11:37;;;;;;;10.52;8.73;;;19.30;99.90;;;;;;4888655;29;20256;-79
2023/07/08 05:14:04;;;;;;;10.77;9.57;;;20.10;99.90;;;;;;4893058;29;20224;-82
2023/07/08 05:16:33;;;;;;;13.93;12.75;;;20.60;99.90;;;;;;4885711;29;20189;-83
2023/07/08 05:18:59;;;;;;;17.65;16.15;;;21.30;99.90;;;;;;4885938;29;20204;-82
2023/07/08 05:21:27;;;;;;;12.38;11.27;;;22.00;99.90;;;;;;4886937;29;20665;-83
2023/07/08 05:23:53;;;;;;;14.20;13.18;;;22.60;99.90;;;;;;4894830;29;20421;-80
2023/07/08 05:26:19;;;;;;;40.08;37.58;;;23.20;99.90;;;;;;4886515;29;20196;-81
2023/07/08 05:28:45;;;;;;;52.58;49.53;;;23.50;99.90;;;;;;4892311;29;20217;-82
2023/07/08 05:31:11;;;;;;;40.22;37.78;;;23.80;99.90;;;;;;4885994;29;20192;-84
2023/07/08 05:33:37;;;;;;;10.45;9.45;;;24.40;99.10;;;;;;4885251;29;20216;-83
2023/07/08 05:36:03;;;;;;;13.95;8.80;;;24.90;97.50;;;;;;4885109;29;20226;-82
2023/07/08 05:38:29;;;;;;;11.10;10.07;;;25.40;95.80;;;;;;4892477;29;20206;-83
2023/07/08 05:40:57;;;;;;;18.98;17.50;;;25.10;94.40;;;;;;4895639;29;20279;-82
2023/07/08 05:43:23;;;;;;;14.85;13.13;;;24.50;94.60;;;;;;4883262;29;20212;-82
2023/07/08 05:45:49;;;;;;;24.55;22.83;;;24.40;95.00;;;;;;4885305;29;20228;-80
2023/07/08 05:48:15;;;;;;;42.97;40.58;;;24.90;94.00;;;;;;4884399;29;20264;-80
2023/07/08 05:50:41;;;;;;;30.75;28.83;;;25.40;93.30;;;;;;4889198;29;20211;-81
2023/07/08 05:53:10;;;;;;;11.52;10.45;;;25.90;91.30;;;;;;4887344;29;20193;-82
2023/07/08 05:55:36;;;;;;;8.73;7.95;;;26.30;90.10;;;;;;4883715;29;20223;-80
2023/07/08 05:58:01;;;;;;;18.25;16.80;;;26.90;88.00;;;;;;4885039;29;20248;-80
2023/07/08 06:00:27;;;;;;;19.02;17.73;;;27.60;84.60;;;;;;4881405;29;20196;-81
2023/07/08 06:02:53;;;;;;;11.10;10.20;;;27.90;83.20;;;;;;4890861;29;20200;-82
2023/07/08 06:05:19;;;;;;;8.32;7.57;;;28.40;79.70;;;;;;4893828;29;20709;-83
2023/07/08 06:07:45;;;;;;;8.45;7.65;;;28.60;79.10;;;;;;4891479;29;20255;-82
2023/07/08 06:10:11;;;;;;;8.82;7.93;;;28.20;77.40;;;;;;4902732;29;20256;-82
2023/07/08 06:12:36;;;;;;;9.38;8.38;;;28.10;78.00;;;;;;4896735;29;20691;-83
2023/07/08 06:15:02;;;;;;;9.98;8.27;;;27.90;78.50;;;;;;4891350;29;20227;-82
2023/07/08 06:17:28;;;;;;;10.45;9.45;;;28.20;79.40;;;;;;4885979;29;20195;-82
2023/07/08 06:19:54;;;;;;;9.90;9.00;;;28.40;77.20;;;;;;4893617;29;20577;-83
2023/07/08 06:22:20;;;;;;;10.35;9.45;;;28.30;77.10;;;;;;4891793;29;20543;-82
2023/07/08 06:24:47;;;;;;;10.30;9.45;;;28.00;76.60;;;;;;4879367;29;20220;-72
2023/07/08 06:27:14;;;;;;;8.20;7.47;;;27.70;76.90;;;;;;4880565;29;20219;-71
2023/07/08 06:29:39;;;;;;;10.13;9.07;;;26.90;80.00;;;;;;4880015;29;20618;-72
2023/07/08 06:32:06;;;;;;;16.95;15.07;;;26.40;81.70;;;;;;4880271;29;20215;-72
2023/07/08 06:34:32;;;;;;;19.95;18.25;;;26.00;84.40;;;;;;4876098;29;20311;-72
2023/07/08 06:36:58;;;;;;;17.27;15.68;;;26.00;85.40;;;;;;4883402;29;20306;-72
2023/07/08 06:39:24;;;;;;;18.17;16.42;;;26.20;84.10;;;;;;4884301;29;20192;-72
2023/07/08 06:41:49;;;;;;;14.32;13.07;;;26.80;82.30;;;;;;4875726;29;20203;-72
2023/07/08 06:44:15;;;;;;;14.45;13.13;;;27.10;81.90;;;;;;4876871;29;20212;-72
2023/07/08 06:46:41;;;;;;;10.70;9.07;;;27.30;79.90;;;;;;4876396;29;20205;-71
2023/07/08 06:49:11;;;;;;;10.73;8.65;;;27.60;78.20;;;;;;4880004;29;20224;-71
2023/07/08 06:51:37;;;;;;;9.75;8.60;;;27.70;78.50;;;;;;4868240;29;20212;-71
2023/07/08 06:54:04;;;;;;;11.38;7.93;;;27.60;77.90;;;;;;4875307;29;20255;-71
2023/07/08 06:56:31;;;;;;;9.45;8.43;;;27.40;78.20;;;;;;4876536;29;20193;-72
2023/07/08 06:58:56;;;;;;;9.73;8.40;;;27.20;78.60;;;;;;4883881;29;20218;-72
2023/07/08 07:01:22;;;;;;;11.70;10.43;;;27.10;79.70;;;;;;4877555;29;20216;-71
2023/07/08 07:03:48;;;;;;;13.48;10.93;;;27.00;79.90;;;;;;4880294;29;20208;-71
2023/07/08 07:06:14;;;;;;;14.35;13.15;;;26.80;80.00;;;;;;4877103;29;20188;-73
2023/07/08 07:08:39;;;;;;;16.17;14.63;;;26.60;81.20;;;;;;4876283;29;20214;-71
2023/07/08 07:11:05;;;;;;;15.38;11.48;;;26.60;80.60;;;;;;4876926;29;20199;-71
2023/07/08 07:13:32;;;;;;;15.43;9.10;;;27.50;78.60;;;;;;4876865;29;20284;-68
2023/07/08 07:15:58;;;;;;;10.45;9.38;;;28.40;74.30;;;;;;4877494;29;20281;-70
2023/07/08 07:18:24;;;;;;;10.57;9.43;;;29.20;74.50;;;;;;4883131;29;20278;-70
2023/07/08 07:20:52;;;;;;;10.18;9.27;;;29.60;70.50;;;;;;4876259;29;20196;-70
2023/07/08 07:23:18;;;;;;;14.77;13.50;;;29.50;70.50;;;;;;4877203;29;20196;-71
2023/07/08 07:25:47;;;;;;;13.82;12.82;;;29.30;69.60;;;;;;4877364;29;20187;-70
2023/07/08 07:28:16;;;;;;;12.95;11.85;;;29.10;70.70;;;;;;4875361;29;20307;-70
2023/07/08 07:30:43;;;;;;;10.93;9.82;;;28.90;69.70;;;;;;4880109;29;20203;-71
2023/07/08 07:33:10;;;;;;;12.93;11.73;;;28.60;69.90;;;;;;4879883;29;20192;-71
2023/07/08 07:35:35;;;;;;;13.27;11.95;;;28.50;71.20;;;;;;4880725;29;20191;-71
2023/07/08 07:38:01;;;;;;;14.60;13.23;;;28.70;70.10;;;;;;4880428;29;20190;-70
2023/07/08 07:40:27;;;;;;;13.25;12.07;;;28.50;69.60;;;;;;4880739;29;20677;-70
2023/07/08 07:42:53;;;;;;;10.48;9.48;;;28.40;71.10;;;;;;4879705;29;20569;-71
2023/07/08 07:45:22;;;;;;;11.82;10.65;;;28.30;71.00;;;;;;4881512;29;20211;-72
2023/07/08 07:47:48;;;;;;;10.85;10.02;;;28.20;72.10;;;;;;4880535;29;20265;-71
2023/07/08 07:50:14;;;;;;;11.15;10.07;;;28.30;70.80;;;;;;4880616;29;20291;-71
2023/07/08 07:52:40;;;;;;;10.88;9.85;;;28.30;70.20;;;;;;4880825;29;20271;-71
2023/07/08 07:55:07;;;;;;;10.52;9.60;;;28.30;70.70;;;;;;4880697;29;20268;-71
2023/07/08 07:57:33;;;;;;;10.52;9.55;;;28.20;71.60;;;;;;4880706;29;20204;-72
2023/07/08 07:59:59;;;;;;;10.95;9.27;;;28.30;71.20;;;;;;4886907;29;20255;-70
2023/07/08 08:02:25;;;;;;;11.52;10.52;;;28.50;71.00;;;;;;4881881;29;20231;-73
2023/07/08 08:04:50;;;;;;;11.43;10.35;;;28.50;70.30;;;;;;4880563;29;20212;-70
2023/07/08 08:07:16;;;;;;;10.25;9.20;;;28.50;71.80;;;;;;4880788;29;20578;-70
2023/07/08 08:09:42;;;;;;;10.98;10.02;;;28.40;70.40;;;;;;4878897;29;20228;-70
2023/07/08 08:12:10;;;;;;;14.98;10.50;;;28.30;71.40;;;;;;4879910;29;20193;-70
2023/07/08 08:14:37;;;;;;;10.02;9.23;;;28.30;72.60;;;;;;4879805;29;20788;-71
2023/07/08 08:17:04;;;;;;;10.68;9.70;;;28.30;72.30;;;;;;4878790;29;20208;-70
2023/07/08 08:19:31;;;;;;;12.93;9.43;;;28.50;69.90;;;;;;4879691;29;20288;-70
2023/07/08 08:21:56;;;;;;;9.57;8.73;;;28.90;70.10;;;;;;4879944;29;20567;-70
2023/07/08 08:24:23;;;;;;;13.55;12.35;;;29.50;69.10;;;;;;4879685;29;20220;-71
2023/07/08 08:26:48;;;;;;;11.80;10.77;;;30.30;66.80;;;;;;4887529;29;20223;-70
2023/07/08 08:29:14;;;;;;;10.75;9.80;;;30.80;66.40;;;;;;4879454;29;20220;-71
2023/07/08 08:31:40;;;;;;;13.93;12.52;;;31.30;64.60;;;;;;4879703;29;20196;-72
2023/07/08 08:34:06;;;;;;;11.70;10.80;;;31.40;62.70;;;;;;4879786;29;20235;-71
2023/07/08 08:36:31;;;;;;;12.95;11.93;;;31.60;63.20;;;;;;4886029;29;20223;-71
2023/07/08 08:38:57;;;;;;;15.98;14.88;;;32.10;61.60;;;;;;4879173;29;20200;-72
2023/07/08 08:41:42;;;;;;;23.15;21.58;;;32.70;62.30;;;;;;4878700;29;20192;-71
2023/07/08 08:44:14;;;;;;;35.42;33.40;;;33.30;59.90;;;;;;4879524;29;20280;-71
2023/07/08 08:46:56;;;;;;;99.30;93.97;;;33.50;59.40;;;;;;4886692;29;20283;-71
2023/07/08 08:49:47;;;;;;;121.85;115.75;;;34.00;58.00;;;;;;4879303;29;20200;-70
2023/07/08 08:52:14;;;;;;;102.53;97.30;;;33.80;57.10;;;;;;4887198;29;20200;-70
2023/07/08 08:54:40;;;;;;;104.53;99.00;;;33.20;57.20;;;;;;4879529;29;20268;-70
2023/07/08 08:57:31;;;;;;;118.78;112.78;;;32.80;58.60;;;;;;4879329;29;20931;-71
2023/07/08 08:59:58;;;;;;;105.93;100.53;;;32.80;58.50;;;;;;4879209;29;20204;-70
2023/07/08 09:02:39;;;;;;;105.50;100.20;;;32.90;58.60;;;;;;4879082;29;20200;-70
2023/07/08 09:05:10;;;;;;;108.45;103.00;;;33.00;58.70;;;;;;4878902;29;20234;-70
2023/07/08 09:08:00;;;;;;;107.00;101.00;;;32.60;58.40;;;;;;4884105;29;20219;-71
2023/07/08 09:10:29;;;;;;;92.97;87.82;;;32.50;58.30;;;;;;4879136;29;20213;-70
2023/07/08 09:12:57;;;;;;;87.38;82.85;;;32.60;58.40;;;;;;4878905;29;20200;-70
2023/07/08 09:15:26;;;;;;;103.00;97.78;;;32.60;57.70;;;;;;4932210;23;20246;-65
2023/07/08 09:17:57;;;;;;;105.13;99.63;;;32.80;57.30;;;;;;4909779;29;20258;-67
2023/07/08 09:20:29;;;;;;;100.32;95.07;;;33.00;57.50;;;;;;4916371;29;20206;-66
2023/07/08 09:23:01;;;;;;;103.53;98.18;;;33.20;56.60;;;;;;4916419;29;20286;-66
2023/07/08 09:25:42;;;;;;;95.40;90.55;;;33.00;57.80;;;;;;4915828;29;20219;-65
2023/07/08 09:28:08;;;;;;;78.38;74.07;;;32.90;57.20;;;;;;4912141;29;20229;-66
2023/07/08 09:30:34;;;;;;;83.18;78.57;;;33.00;57.20;;;;;;4916216;29;20274;-68
2023/07/08 09:33:07;;;;;;;75.32;71.22;;;33.50;56.00;;;;;;4916209;29;20286;-67
2023/07/08 09:35:43;;;;;;;41.78;39.17;;;34.00;55.40;;;;;;4915073;29;20290;-67
2023/07/08 09:38:16;;;;;;;27.05;25.27;;;34.00;54.60;;;;;;4912298;29;20193;-67
2023/07/08 09:40:51;;;;;;;29.08;27.10;;;33.80;53.90;;;;;;4905195;29;20200;-68
2023/07/08 09:43:36;;;;;;;32.22;30.38;;;33.70;54.10;;;;;;4897261;29;20263;-67
2023/07/08 09:46:02;;;;;;;66.63;63.05;;;33.30;54.30;;;;;;4897430;29;20187;-67
2023/07/08 09:48:39;;;;;;;73.38;69.43;;;32.90;55.00;;;;;;4926952;29;20215;-67
2023/07/08 09:51:07;;;;;;;90.20;85.45;;;32.80;55.10;;;;;;4927862;29;20215;-68
2023/07/08 09:53:33;;;;;;;59.30;56.10;;;32.80;54.80;;;;;;4927533;29;20234;-68
2023/07/08 09:56:02;;;;;;;37.35;35.25;;;33.50;53.70;;;;;;4912387;29;20183;-68
2023/07/08 09:58:33;;;;;;;14.18;12.90;;;34.60;52.70;;;;;;4914514;29;20195;-67
2023/07/08 10:01:05;;;;;;;7.00;6.47;;;35.20;51.60;;;;;;4915948;29;20199;-67
2023/07/08 10:03:35;;;;;;;6.85;6.05;;;34.90;50.90;;;;;;4915629;29;20206;-67
2023/07/08 10:06:24;;;;;;;11.25;10.52;;;33.90;51.70;;;;;;4911914;29;20191;-67
2023/07/08 10:08:54;;;;;;;16.30;15.20;;;33.60;52.60;;;;;;4909298;29;20226;-66
2023/07/08 10:11:28;;;;;;;17.58;16.55;;;33.70;53.30;;;;;;4916162;29;20282;-67
2023/07/08 10:14:15;;;;;;;6.90;6.13;;;34.10;53.10;;;;;;4915303;29;20223;-67
2023/07/08 10:16:41;;;;;;;8.20;7.47;;;34.80;52.20;;;;;;4913041;29;20588;-66
2023/07/08 10:19:16;;;;;;;12.43;11.23;;;35.90;50.70;;;;;;4914599;29;20664;-67
2023/07/08 10:21:54;;;;;;;13.93;12.27;;;36.70;50.00;;;;;;4915303;29;20197;-66
2023/07/08 10:24:57;;;;;;;14.15;13.15;;;36.50;50.20;;;;;;4914991;29;20214;-68
2023/07/08 10:27:47;;;;;;;13.38;12.20;;;35.60;50.90;;;;;;4909699;29;20309;-67
2023/07/08 10:30:21;;;;;;;6.63;6.03;;;34.80;51.50;;;;;;4914996;29;20734;-67
2023/07/08 10:33:03;;;;;;;6.63;4.97;;;33.90;53.60;;;;;;4914950;29;20201;-68
2023/07/08 10:35:36;;;;;;;7.88;7.22;;;33.60;53.80;;;;;;4914887;29;20658;-68
2023/07/08 10:38:13;;;;;;;4.22;3.92;;;33.20;53.70;;;;;;4910286;29;20202;-67
2023/07/08 10:40:51;;;;;;;4.03;3.65;;;32.80;51.00;;;;;;4914953;29;20662;-68
2023/07/08 10:43:47;;;;;;;8.23;7.72;;;32.50;51.50;;;;;;4914680;29;20206;-68
2023/07/08 10:46:21;;;;;;;7.03;6.63;;;32.70;52.90;;;;;;4910342;29;20238;-66
2023/07/08 10:49:04;;;;;;;7.22;6.75;;;32.60;52.00;;;;;;4905952;29;20688;-66
2023/07/08 10:51:39;;;;;;;27.38;25.92;;;32.20;52.30;;;;;;4913403;29;20186;-67
2023/07/08 10:54:19;;;;;;;60.50;57.05;;;32.20;54.40;;;;;;4913996;29;20229;-66
2023/07/08 10:56:54;;;;;;;81.00;76.90;;;32.50;55.30;;;;;;4902990;29;20597;-67
2023/07/08 10:59:38;;;;;;;55.85;52.78;;;33.10;55.20;;;;;;4882912;29;20195;-67
2023/07/08 11:02:23;;;;;;;14.05;13.05;;;33.80;54.10;;;;;;4896070;29;20590;-70
2023/07/08 11:04:58;;;;;;;5.88;5.38;;;34.90;52.80;;;;;;4906096;29;20718;-73
2023/07/08 11:07:40;;;;;;;7.93;7.45;;;35.20;51.70;;;;;;4908539;29;20222;-73
2023/07/08 11:10:29;;;;;;;8.55;7.95;;;35.20;47.60;;;;;;4914071;29;20186;-73
2023/07/08 11:13:10;;;;;;;10.60;9.90;;;34.70;48.30;;;;;;4913885;29;20564;-73
2023/07/08 11:15:42;;;;;;;18.83;17.85;;;35.00;49.60;;;;;;4914469;29;20293;-73
2023/07/08 11:18:19;;;;;;;12.50;11.27;;;35.60;48.00;;;;;;4910594;29;20234;-73
2023/07/08 11:20:58;;;;;;;3.90;3.70;;;36.60;47.10;;;;;;4900405;29;20288;-73
2023/07/08 11:23:30;;;;;;;4.25;3.95;;;37.30;44.10;;;;;;4925703;29;20198;-73
2023/07/08 11:26:18;;;;;;;3.70;3.40;;;37.90;44.40;;;;;;4896132;29;20262;-73
2023/07/08 11:28:45;;;;;;;2.97;2.80;;;37.90;42.00;;;;;;4907398;29;20580;-73
2023/07/08 11:31:12;;;;;;;3.53;3.22;;;37.90;42.40;;;;;;4914441;29;20203;-73
2023/07/08 11:33:39;;;;;;;3.20;3.00;;;37.80;42.10;;;;;;4914486;29;20198;-73
2023/07/08 11:36:06;;;;;;;4.63;4.32;;;37.80;42.10;;;;;;4911598;29;20186;-73
2023/07/08 11:38:34;;;;;;;3.70;3.42;;;38.00;43.10;;;;;;4896369;29;20218;-73
2023/07/08 11:41:15;;;;;;;4.97;4.57;;;38.40;43.60;;;;;;4914435;29;20191;-73
2023/07/08 11:43:53;;;;;;;5.15;4.60;;;38.60;43.10;;;;;;4887280;29;20216;-73
2023/07/08 11:46:25;;;;;;;16.17;15.25;;;39.30;43.10;;;;;;4908671;29;20203;-73
2023/07/08 11:48:53;;;;;;;26.23;24.83;;;38.80;41.90;;;;;;4914041;29;20306;-73
2023/07/08 11:51:29;;;;;;;22.30;21.23;;;38.90;41.50;;;;;;4914330;29;20187;-73
2023/07/08 11:54:07;;;;;;;48.78;46.22;;;38.50;41.00;;;;;;4916464;29;20242;-73
2023/07/08 11:57:04;;;;;;;15.18;14.30;;;38.20;41.20;;;;;;4895952;29;20227;-73
2023/07/08 11:59:33;;;;;;;12.60;11.85;;;37.90;41.70;;;;;;4914398;29;20199;-73
2023/07/08 12:02:09;;;;;;;7.18;6.78;;;37.60;42.30;;;;;;4914475;29;20245;-73
2023/07/08 12:05:02;;;;;;;8.77;8.27;;;37.70;42.40;;;;;;4914216;29;20761;-73
2023/07/08 12:07:43;;;;;;;20.70;19.50;;;38.20;42.10;;;;;;4911136;29;20595;-73
2023/07/08 12:10:16;;;;;;;25.80;24.25;;;39.10;41.00;;;;;;4914349;29;20195;-73
2023/07/08 12:12:43;;;;;;;25.50;23.98;;;39.40;40.40;;;;;;4907160;29;20566;-73
2023/07/08 12:15:33;;;;;;;17.70;16.80;;;39.60;40.40;;;;;;4885626;29;20232;-74
2023/07/08 12:18:20;;;;;;;11.60;10.70;;;40.30;39.70;;;;;;4912242;29;20214;-73
2023/07/08 12:20:50;;;;;;;7.82;7.15;;;40.40;39.10;;;;;;4910559;29;20208;-73
2023/07/08 12:23:20;;;;;;;6.43;5.82;;;39.90;38.50;;;;;;4917523;29;20297;-73
2023/07/08 12:25:46;;;;;;;6.95;6.40;;;39.60;38.90;;;;;;4917566;29;20635;-73
2023/07/08 12:28:13;;;;;;;8.15;7.68;;;40.30;38.90;;;;;;4906865;29;20215;-74
2023/07/08 12:30:40;;;;;;;9.77;9.27;;;41.20;38.10;;;;;;4898541;29;20192;-73
2023/07/08 12:33:15;;;;;;;8.43;7.90;;;41.40;36.80;;;;;;4898792;29;20190;-73
2023/07/08 12:35:43;;;;;;;34.17;32.47;;;41.30;36.80;;;;;;4910001;29;20775;-73
2023/07/08 12:38:33;;;;;;;31.83;29.98;;;40.40;37.40;;;;;;4914656;29;20217;-73
2023/07/08 12:41:02;;;;;;;41.65;39.58;;;40.40;37.00;;;;;;4917068;29;20656;-73
2023/07/08 12:43:28;;;;;;;42.97;40.85;;;40.60;37.50;;;;;;4916918;29;20670;-73
2023/07/08 12:45:54;;;;;;;22.70;21.27;;;40.90;38.00;;;;;;4911599;29;20231;-73
2023/07/08 12:48:20;;;;;;;14.88;13.93;;;41.40;36.40;;;;;;4914654;29;20226;-73
2023/07/08 12:50:46;;;;;;;29.00;27.33;;;40.40;36.20;;;;;;4916868;29;20191;-74
2023/07/08 12:53:12;;;;;;;6.30;5.90;;;40.40;37.60;;;;;;4916852;29;20286;-73
2023/07/08 12:55:44;;;;;;;9.45;8.85;;;41.30;36.00;;;;;;4916691;29;20222;-73
2023/07/08 12:58:23;;;;;;;4.28;3.88;;;41.40;35.90;;;;;;4914322;29;20219;-73
2023/07/08 13:00:49;;;;;;;8.82;8.30;;;41.30;35.80;;;;;;4910662;29;20578;-73
2023/07/08 13:03:21;;;;;;;4.30;4.03;;;41.20;37.00;;;;;;4916681;29;20191;-73
2023/07/08 13:05:50;;;;;;;3.13;2.92;;;41.90;36.30;;;;;;4905444;29;20218;-73
2023/07/08 13:08:20;;;;;;;4.45;4.15;;;42.30;35.30;;;;;;4929305;29;20239;-73
2023/07/08 13:10:46;;;;;;;5.20;3.67;;;41.00;37.20;;;;;;4922538;29;20690;-73
2023/07/08 13:13:18;;;;;;;4.40;4.10;;;41.00;36.40;;;;;;4905460;29;20295;-73
2023/07/08 13:15:45;;;;;;;7.65;6.07;;;41.30;35.90;;;;;;4897757;29;20243;-73
2023/07/08 13:18:20;;;;;;;6.75;6.35;;;40.30;37.00;;;;;;4913022;29;20258;-73
2023/07/08 13:20:53;;;;;;;5.85;5.45;;;40.50;36.50;;;;;;4916269;29;20705;-73
2023/07/08 13:23:21;;;;;;;5.43;5.05;;;41.00;36.30;;;;;;4898407;29;20196;-73
2023/07/08 13:25:51;;;;;;;3.70;3.00;;;41.10;37.10;;;;;;4880631;29;20196;-73
2023/07/08 13:28:36;;;;;;;4.93;2.55;;;41.60;35.80;;;;;;4913163;29;20622;-73
2023/07/08 13:31:14;;;;;;;3.38;3.10;;;41.70;35.60;;;;;;4916288;29;20210;-74
2023/07/08 13:33:46;;;;;;;4.40;2.92;;;41.60;35.50;;;;;;4898934;29;20293;-74
2023/07/08 13:36:15;;;;;;;5.50;3.00;;;41.70;35.30;;;;;;4903587;29;20224;-73
2023/07/08 13:38:41;;;;;;;6.63;3.65;;;41.80;34.80;;;;;;4910761;29;20225;-74
2023/07/08 13:41:08;;;;;;;3.88;3.20;;;42.30;34.30;;;;;;4903406;29;20609;-74
2023/07/08 13:43:38;;;;;;;3.30;2.97;;;42.30;34.40;;;;;;4898977;29;20215;-73
2023/07/08 13:46:04;;;;;;;2.60;2.40;;;42.60;34.50;;;;;;4896645;29;20187;-74
2023/07/08 13:48:43;;;;;;;3.40;2.63;;;42.90;34.40;;;;;;4914010;29;20576;-74
2023/07/08 13:51:16;;;;;;;3.75;3.45;;;42.00;34.40;;;;;;4915240;29;20278;-74
2023/07/08 13:53:47;;;;;;;4.05;3.75;;;42.00;33.90;;;;;;4911449;29;20316;-74
2023/07/08 13:56:29;;;;;;;5.18;4.82;;;42.00;35.00;;;;;;4896853;29;20203;-74
2023/07/08 13:59:12;;;;;;;6.20;4.30;;;42.70;34.30;;;;;;4914878;29;20190;-74
2023/07/08 14:01:40;;;;;;;9.52;3.42;;;42.60;33.90;;;;;;4911845;29;20203;-74
2023/07/08 14:04:07;;;;;;;4.60;3.38;;;41.40;34.60;;;;;;4896845;29;20303;-74
2023/07/08 14:06:38;;;;;;;3.75;3.45;;;41.10;35.10;;;;;;4902177;29;20195;-74
2023/07/08 14:09:13;;;;;;;5.28;3.83;;;41.40;34.70;;;;;;4917238;29;20258;-73
2023/07/08 14:11:40;;;;;;;4.45;3.90;;;41.30;34.90;;;;;;4916314;29;20249;-74
2023/07/08 14:14:07;;;;;;;3.63;3.35;;;41.40;35.20;;;;;;4899079;29;20232;-75
2023/07/08 14:16:37;;;;;;;4.63;4.13;;;42.30;34.70;;;;;;4880389;29;20807;-73
2023/07/08 14:19:05;;;;;;;7.25;6.85;;;42.20;34.20;;;;;;4906847;29;20219;-73
2023/07/08 14:21:33;;;;;;;5.22;4.82;;;42.80;32.40;;;;;;4924035;29;20191;-73
2023/07/08 14:23:59;;;;;;;7.40;6.88;;;42.80;32.40;;;;;;4918113;29;20631;-73
2023/07/08 14:26:25;;;;;;;10.90;10.35;;;43.10;32.70;;;;;;4914675;29;20202;-74
2023/07/08 14:28:51;;;;;;;14.43;13.50;;;43.60;32.70;;;;;;4915057;29;20731;-74
2023/07/08 14:31:23;;;;;;;18.92;17.73;;;43.80;30.90;;;;;;4898743;29;20279;-74
2023/07/08 14:33:50;;;;;;;16.58;15.38;;;42.90;31.80;;;;;;4898627;29;20298;-74
2023/07/08 14:36:15;;;;;;;8.52;7.85;;;42.80;32.70;;;;;;4915355;29;20191;-73
2023/07/08 14:38:41;;;;;;;6.63;6.03;;;42.80;33.70;;;;;;4891291;29;20191;-74
2023/07/08 14:41:07;;;;;;;5.80;5.40;;;41.90;34.80;;;;;;4928992;29;20643;-73
2023/07/08 14:43:34;;;;;;;4.68;4.28;;;40.00;36.00;;;;;;4923292;29;20203;-73
2023/07/08 14:46:03;;;;;;;11.57;10.77;;;38.40;37.90;;;;;;4898212;29;20200;-73
2023/07/08 14:48:30;;;;;;;36.53;34.42;;;37.40;39.00;;;;;;4890507;29;20218;-73
2023/07/08 14:50:56;;;;;;;34.35;32.20;;;37.60;39.40;;;;;;4897998;29;20282;-73
2023/07/08 14:53:23;;;;;;;40.08;37.88;;;37.50;39.60;;;;;;4914820;29;20282;-73
2023/07/08 14:55:52;;;;;;;49.78;47.25;;;37.50;40.10;;;;;;4914964;29;20199;-72
2023/07/08 14:58:28;;;;;;;74.22;70.60;;;37.20;40.10;;;;;;4908145;29;20215;-73
2023/07/08 15:00:59;;;;;;;54.85;51.95;;;37.00;40.50;;;;;;4915031;29;20226;-73
2023/07/08 15:03:26;;;;;;;38.38;36.47;;;37.50;40.50;;;;;;4914586;29;20194;-73
2023/07/08 15:05:52;;;;;;;31.35;29.58;;;38.50;38.40;;;;;;4897757;29;20221;-74
2023/07/08 15:08:18;;;;;;;8.13;7.63;;;39.50;37.60;;;;;;4907626;29;20254;-74
2023/07/08 15:10:49;;;;;;;4.22;3.55;;;40.30;37.00;;;;;;4898011;29;20184;-74
2023/07/08 15:13:19;;;;;;;4.35;3.53;;;41.10;35.80;;;;;;4914663;29;20573;-74
2023/07/08 15:15:45;;;;;;;6.03;5.47;;;42.00;34.90;;;;;;4929020;23;20226;-78
2023/07/08 15:18:15;;;;;;;9.23;8.52;;;42.20;34.30;;;;;;4908941;29;20199;-79
2023/07/08 15:20:41;;;;;;;12.88;11.98;;;42.50;33.90;;;;;;4928218;29;20202;-79
2023/07/08 15:23:07;;;;;;;20.58;19.48;;;42.60;33.80;;;;;;4927342;29;20190;-79
2023/07/08 15:25:34;;;;;;;15.32;14.35;;;43.00;33.50;;;;;;4917269;29;20927;-78
2023/07/08 15:28:04;;;;;;;17.98;16.73;;;43.30;32.20;;;;;;4896893;29;20219;-79
2023/07/08 15:30:31;;;;;;;14.35;13.27;;;43.90;32.20;;;;;;4920826;29;20203;-78
2023/07/08 15:32:58;;;;;;;12.10;11.40;;;44.30;31.80;;;;;;4894549;29;20258;-79
2023/07/08 15:35:33;;;;;;;11.40;10.60;;;43.90;32.40;;;;;;4918652;29;20358;-79
2023/07/08 15:38:03;;;;;;;9.85;9.00;;;43.80;32.50;;;;;;4893559;29;20224;-79
2023/07/08 15:40:32;;;;;;;9.27;8.55;;;43.90;31.80;;;;;;4911739;29;20215;-79
2023/07/08 15:43:01;;;;;;;17.13;16.02;;;43.60;31.90;;;;;;4914688;29;20232;-78
2023/07/08 15:45:30;;;;;;;22.45;21.25;;;42.60;33.10;;;;;;4908440;29;20602;-78
2023/07/08 15:47:56;;;;;;;27.50;26.00;;;42.50;33.00;;;;;;4906037;29;20279;-78